createdAt,value
2019-04-03T00:02:08.362Z,20.37
2019-04-03T00:04:38.622Z,19.53
2019-04-03T00:07:09.088Z,24.40
2019-04-03T00:09:39.664Z,19.10
2019-04-03T00:12:11.616Z,19.40
2019-04-03T00:14:43.136Z,25.70
2019-04-03T00:17:15.022Z,20.97
2019-04-03T00:19:45.803Z,23.33
2019-04-03T00:22:17.577Z,25.50
2019-04-03T00:24:47.884Z,25.03
2019-04-03T00:27:18.210Z,24.93
2019-04-03T00:29:48.535Z,21.33
2019-04-03T00:32:18.776Z,24.20
2019-04-03T00:34:49.027Z,21.40
2019-04-03T00:37:19.267Z,20.47
2019-04-03T00:39:49.746Z,23.73
2019-04-03T00:42:21.086Z,23.30
2019-04-03T00:44:51.265Z,20.07
2019-04-03T00:47:21.535Z,21.47
2019-04-03T00:49:51.945Z,19.20
2019-04-03T00:52:22.202Z,20.00
2019-04-03T00:54:52.406Z,17.50
2019-04-03T00:57:22.819Z,16.10
2019-04-03T00:59:53.077Z,24.10
2019-04-03T01:02:23.294Z,20.37
2019-04-03T01:04:53.560Z,24.40
2019-04-03T01:07:23.931Z,21.47
2019-04-03T01:09:55.327Z,21.07
2019-04-03T01:12:25.678Z,22.10
2019-04-03T01:14:56.045Z,24.37
2019-04-03T01:17:26.257Z,18.07
2019-04-03T01:19:56.476Z,21.83
2019-04-03T01:22:26.741Z,20.80
2019-04-03T01:24:56.931Z,18.80
2019-04-03T01:27:27.185Z,23.47
2019-04-03T01:29:57.420Z,24.23
2019-04-03T01:32:27.626Z,17.60
2019-04-03T01:34:59.024Z,20.63
2019-04-03T01:37:29.270Z,23.67
2019-04-03T01:39:59.485Z,21.60
2019-04-03T01:42:29.874Z,19.13
2019-04-03T01:45:00.131Z,18.70
2019-04-03T01:47:30.327Z,21.53
2019-04-03T01:50:00.537Z,19.67
2019-04-03T01:52:31.780Z,19.00
2019-04-03T01:55:04.356Z,18.17
2019-04-03T01:57:36.790Z,22.60
2019-04-03T02:00:08.318Z,22.47
2019-04-03T02:02:39.258Z,18.20
2019-04-03T02:05:12.149Z,18.80
2019-04-03T02:07:44.201Z,23.40
2019-04-03T02:10:19.185Z,23.20
2019-04-03T02:12:51.232Z,17.30
2019-04-03T02:15:22.267Z,19.60
2019-04-03T02:17:54.991Z,20.60
2019-04-03T02:20:26.708Z,20.80
2019-04-03T02:22:59.289Z,18.67
2019-04-03T02:25:31.563Z,24.30
2019-04-03T02:28:04.051Z,20.53
2019-04-03T02:30:34.039Z,19.83
2019-04-03T02:33:04.300Z,18.77
2019-04-03T02:35:34.498Z,17.77
2019-04-03T02:38:04.867Z,20.00
2019-04-03T02:40:35.248Z,25.77
2019-04-03T02:43:05.976Z,16.17
2019-04-03T02:45:36.151Z,19.40
2019-04-03T02:48:06.705Z,19.63
2019-04-03T02:50:37.709Z,18.47
2019-04-03T02:53:08.257Z,21.83
2019-04-03T02:55:39.775Z,23.30
2019-04-03T02:58:10.659Z,17.73
2019-04-03T03:00:40.929Z,20.83
2019-04-03T03:03:11.530Z,21.13
2019-04-03T03:05:41.927Z,16.23
2019-04-03T03:08:12.130Z,20.93
2019-04-03T03:10:43.470Z,22.53
2019-04-03T03:13:13.917Z,17.40
2019-04-03T03:15:45.345Z,20.60
2019-04-03T03:18:16.016Z,17.33
2019-04-03T03:20:46.569Z,20.77
2019-04-03T03:23:17.064Z,21.83
2019-04-03T03:25:49.549Z,20.57
2019-04-03T03:28:19.832Z,21.70
2019-04-03T03:30:57.809Z,20.43
2019-04-03T03:33:32.104Z,18.50
2019-04-03T03:35:55.297Z,20.77
2019-04-03T03:38:28.182Z,19.53
2019-04-03T03:40:59.094Z,17.67
2019-04-03T03:43:29.476Z,21.07
2019-04-03T03:46:00.163Z,24.07
2019-04-03T03:48:30.991Z,24.30
2019-04-03T03:51:04.144Z,19.23
2019-04-03T03:53:34.974Z,18.63
2019-04-03T03:56:05.470Z,23.20
2019-04-03T03:58:35.847Z,20.33
2019-04-03T04:01:06.341Z,26.30
2019-04-03T04:03:40.359Z,23.37
2019-04-03T04:06:14.836Z,23.13
2019-04-03T04:08:45.776Z,20.77
2019-04-03T04:11:16.760Z,24.90
2019-04-03T04:13:48.447Z,20.23
2019-04-03T04:16:19.632Z,23.37
2019-04-03T04:18:50.452Z,24.33
2019-04-03T04:21:21.103Z,20.93
2019-04-03T04:23:55.158Z,19.70
2019-04-03T04:26:23.507Z,19.40
2019-04-03T04:28:53.866Z,18.77
2019-04-03T04:31:24.115Z,24.77
2019-04-03T04:33:54.341Z,23.17
2019-04-03T04:36:24.900Z,21.37
2019-04-03T04:38:57.354Z,23.47
2019-04-03T04:41:27.217Z,19.73
2019-04-03T04:43:57.647Z,20.77
2019-04-03T04:46:28.007Z,23.20
2019-04-03T04:48:58.382Z,22.23
2019-04-03T04:51:28.571Z,21.53
2019-04-03T04:53:59.481Z,18.37
2019-04-03T04:56:30.440Z,23.93
2019-04-03T04:59:01.174Z,23.77
2019-04-03T05:01:31.477Z,18.67
2019-04-03T05:04:01.795Z,19.13
2019-04-03T05:06:32.132Z,19.90
2019-04-03T05:09:03.871Z,21.47
2019-04-03T05:11:34.627Z,21.90
2019-04-03T05:14:06.242Z,18.37
2019-04-03T05:16:36.781Z,20.93
2019-04-03T05:19:10.455Z,21.13
2019-04-03T05:21:39.852Z,18.80
2019-04-03T05:24:12.834Z,20.93
2019-04-03T05:26:41.927Z,19.70
2019-04-03T05:29:12.121Z,18.80
2019-04-03T05:31:42.733Z,21.27
2019-04-03T05:34:14.130Z,20.30
2019-04-03T05:36:44.319Z,21.40
2019-04-03T05:39:14.746Z,17.83
2019-04-03T05:41:45.249Z,23.87
2019-04-03T05:44:16.070Z,16.83
2019-04-03T05:46:46.391Z,17.67
2019-04-03T05:49:18.477Z,20.00
2019-04-03T05:51:49.529Z,18.77
2019-04-03T05:54:20.358Z,18.13
2019-04-03T05:56:51.782Z,20.00
2019-04-03T05:59:22.383Z,20.50
2019-04-03T06:01:52.861Z,19.00
2019-04-03T06:04:23.064Z,18.03
2019-04-03T06:06:54.581Z,22.93
2019-04-03T06:09:24.898Z,15.67
2019-04-03T06:11:55.899Z,18.67
2019-04-03T06:14:26.282Z,19.50
2019-04-03T06:16:56.853Z,16.93
2019-04-03T06:19:28.082Z,21.67
2019-04-03T06:21:58.818Z,15.80
2019-04-03T06:24:29.247Z,17.20
2019-04-03T06:26:59.709Z,18.03
2019-04-03T06:29:30.283Z,19.73
2019-04-03T06:32:07.566Z,20.87
2019-04-03T06:34:40.538Z,21.17
2019-04-03T06:37:11.942Z,26.13
2019-04-03T06:39:42.284Z,21.07
2019-04-03T06:42:13.262Z,16.40
2019-04-03T06:44:44.367Z,17.07
2019-04-03T06:47:14.964Z,17.90
2019-04-03T06:49:45.301Z,16.83
2019-04-03T06:52:15.638Z,19.63
2019-04-03T06:54:45.858Z,16.77
2019-04-03T06:57:16.447Z,16.57
2019-04-03T06:59:49.252Z,17.53
2019-04-03T07:02:20.678Z,17.97
2019-04-03T07:04:53.532Z,20.37
2019-04-03T07:07:33.540Z,17.47
2019-04-03T07:09:55.949Z,14.93
2019-04-03T07:12:26.912Z,20.27
2019-04-03T07:14:59.792Z,17.17
2019-04-03T07:17:32.125Z,17.33
2019-04-03T07:20:12.475Z,18.60
2019-04-03T07:22:34.386Z,18.23
2019-04-03T07:25:06.183Z,21.37
2019-04-03T07:27:37.473Z,15.63
2019-04-03T07:30:10.423Z,18.07
2019-04-03T07:32:40.783Z,17.30
2019-04-03T07:35:11.140Z,15.37
2019-04-03T07:37:41.585Z,16.13
2019-04-03T07:40:12.619Z,19.20
2019-04-03T07:42:43.340Z,18.23
2019-04-03T07:45:15.190Z,15.53
2019-04-03T07:47:45.693Z,18.80
2019-04-03T07:50:17.858Z,19.03
2019-04-03T07:52:48.938Z,17.40
2019-04-03T07:55:20.597Z,17.90
2019-04-03T07:57:54.837Z,16.87
2019-04-03T08:00:25.111Z,14.60
2019-04-03T08:02:55.738Z,18.20
2019-04-03T08:05:26.328Z,18.53
2019-04-03T08:07:56.635Z,18.03
2019-04-03T08:10:28.006Z,16.40
2019-04-03T08:12:59.910Z,16.63
2019-04-03T08:15:31.979Z,17.23
2019-04-03T08:18:02.304Z,17.37
2019-04-03T08:20:32.633Z,20.03
2019-04-03T08:23:05.074Z,14.23
2019-04-03T08:25:35.089Z,15.23
2019-04-03T08:28:05.660Z,16.27
2019-04-03T08:30:38.533Z,13.97
2019-04-03T08:33:15.929Z,15.87
2019-04-03T08:35:40.563Z,15.77
2019-04-03T08:38:12.922Z,18.30
2019-04-03T08:40:43.549Z,14.90
2019-04-03T08:43:14.212Z,17.33
2019-04-03T08:45:46.234Z,16.60
2019-04-03T08:48:17.628Z,19.20
2019-04-03T08:50:49.822Z,17.13
2019-04-03T08:53:20.197Z,17.47
2019-04-03T08:55:50.715Z,17.60
2019-04-03T08:58:22.102Z,24.70
2019-04-03T09:00:53.141Z,15.70
2019-04-03T09:03:23.735Z,17.30
2019-04-03T09:05:55.765Z,17.17
2019-04-03T09:08:27.150Z,18.90
2019-04-03T09:10:57.534Z,18.53
2019-04-03T09:13:28.116Z,19.00
2019-04-03T09:15:59.714Z,20.13
2019-04-03T09:18:33.087Z,16.83
2019-04-03T09:21:03.761Z,17.60
2019-04-03T09:23:34.109Z,18.07
2019-04-03T09:26:04.493Z,16.40
2019-04-03T09:28:36.005Z,16.50
2019-04-03T09:31:06.353Z,19.03
2019-04-03T09:33:36.618Z,17.33
2019-04-03T09:36:06.931Z,17.30
2019-04-03T09:38:37.563Z,17.87
2019-04-03T09:41:07.934Z,15.30
2019-04-03T09:43:39.914Z,18.57
2019-04-03T09:46:11.345Z,17.23
2019-04-03T09:48:41.772Z,17.70
2019-04-03T09:51:13.132Z,15.93
2019-04-03T09:53:43.369Z,20.13
2019-04-03T09:56:13.535Z,18.07
2019-04-03T09:58:43.999Z,17.07
2019-04-03T10:01:18.309Z,24.70
2019-04-03T10:03:47.083Z,17.10
2019-04-03T10:06:17.627Z,20.03
2019-04-03T10:08:48.100Z,20.50
2019-04-03T10:11:20.477Z,18.60
2019-04-03T10:13:51.543Z,18.20
2019-04-03T10:16:22.019Z,19.50
2019-04-03T10:18:52.551Z,20.83
2019-04-03T10:21:22.805Z,15.27
2019-04-03T10:23:57.714Z,18.77
2019-04-03T10:26:30.976Z,19.57
2019-04-03T10:29:01.430Z,19.13
2019-04-03T10:31:31.686Z,17.33
2019-04-03T10:34:03.138Z,21.03
2019-04-03T10:36:34.111Z,18.13
2019-04-03T10:39:06.128Z,16.83
2019-04-03T10:41:36.329Z,18.73
2019-04-03T10:44:09.297Z,17.40
2019-04-03T10:46:38.859Z,21.30
2019-04-03T10:49:09.468Z,19.60
2019-04-03T10:51:41.609Z,19.30
2019-04-03T10:54:12.187Z,18.93
2019-04-03T10:56:42.496Z,16.13
2019-04-03T10:59:13.886Z,13.17
2019-04-03T11:01:44.807Z,17.50
2019-04-03T11:04:15.138Z,19.83
2019-04-03T11:06:45.411Z,16.57
2019-04-03T11:09:15.862Z,16.23
2019-04-03T11:11:46.573Z,14.43
2019-04-03T11:14:18.691Z,14.03
2019-04-03T11:16:49.705Z,13.90
2019-04-03T11:19:20.367Z,13.97
2019-04-03T11:21:52.426Z,14.93
2019-04-03T11:24:22.648Z,15.30
2019-04-03T11:26:54.013Z,15.40
2019-04-03T11:29:24.249Z,15.33
2019-04-03T11:31:54.588Z,19.50
2019-04-03T11:34:25.121Z,13.73
2019-04-03T11:36:55.488Z,16.70
2019-04-03T11:39:25.914Z,19.87
2019-04-03T11:41:56.509Z,12.77
2019-04-03T11:44:29.954Z,18.00
2019-04-03T11:47:00.375Z,13.97
2019-04-03T11:49:30.907Z,16.03
2019-04-03T11:52:01.979Z,13.67
2019-04-03T11:54:32.445Z,16.73
2019-04-03T11:57:03.510Z,14.13
2019-04-03T11:59:35.073Z,20.07
2019-04-03T12:02:07.435Z,16.70
2019-04-03T12:04:40.226Z,13.57
2019-04-03T12:07:12.214Z,19.53
2019-04-03T12:09:42.748Z,13.60
2019-04-03T12:12:13.014Z,15.30
2019-04-03T12:14:44.479Z,12.53
2019-04-03T12:17:15.217Z,16.30
2019-04-03T12:19:46.135Z,13.70
2019-04-03T12:22:16.639Z,14.53
2019-04-03T12:24:48.742Z,17.27
2019-04-03T12:27:20.885Z,13.07
2019-04-03T12:29:51.978Z,15.73
2019-04-03T12:32:23.185Z,13.53
2019-04-03T12:34:53.485Z,11.53
2019-04-03T12:37:25.013Z,18.07
2019-04-03T12:39:58.259Z,13.97
2019-04-03T12:42:28.854Z,13.20
2019-04-03T12:44:59.795Z,12.60
2019-04-03T12:47:30.379Z,13.57
2019-04-03T12:50:01.117Z,13.07
2019-04-03T12:52:31.338Z,14.60
2019-04-03T12:55:01.862Z,14.10
2019-04-03T12:57:33.750Z,17.50
2019-04-03T13:00:05.190Z,16.53
2019-04-03T13:02:35.720Z,16.77
2019-04-03T13:05:07.746Z,13.57
2019-04-03T13:07:38.402Z,15.03
2019-04-03T13:10:11.080Z,15.50
2019-04-03T13:12:41.565Z,14.93
2019-04-03T13:15:12.748Z,15.17
2019-04-03T13:17:44.291Z,12.13
2019-04-03T13:20:15.676Z,12.20
2019-04-03T13:22:46.216Z,14.03
2019-04-03T13:25:20.241Z,13.83
2019-04-03T13:27:48.493Z,19.80
2019-04-03T13:30:18.929Z,15.27
2019-04-03T13:32:58.387Z,12.93
2019-04-03T13:35:21.240Z,13.93
2019-04-03T13:37:54.382Z,13.53
2019-04-03T13:40:23.841Z,13.03
2019-04-03T13:42:54.083Z,14.10
2019-04-03T13:45:24.806Z,14.00
2019-04-03T13:47:56.518Z,11.53
2019-04-03T13:50:26.982Z,12.87
2019-04-03T13:52:58.577Z,13.10
2019-04-03T13:55:32.885Z,12.27
2019-04-03T13:58:01.227Z,12.63
2019-04-03T14:00:32.852Z,13.93
2019-04-03T14:03:03.870Z,13.30
2019-04-03T14:05:36.115Z,13.93
2019-04-03T14:08:07.419Z,15.27
2019-04-03T14:10:38.277Z,25.47
2019-04-03T14:13:11.359Z,14.30
2019-04-03T14:15:42.097Z,14.50
2019-04-03T14:18:13.566Z,13.67
2019-04-03T14:20:44.920Z,20.47
2019-04-03T14:23:15.241Z,15.70
2019-04-03T14:25:46.032Z,18.63
2019-04-03T14:28:16.202Z,15.30
2019-04-03T14:30:46.407Z,19.40
2019-04-03T14:33:19.210Z,15.07
2019-04-03T14:35:53.984Z,14.37
2019-04-03T14:38:22.370Z,18.00
2019-04-03T14:40:52.824Z,15.90
2019-04-03T14:43:23.089Z,15.33
2019-04-03T14:45:53.767Z,22.63
2019-04-03T14:48:26.146Z,17.03
2019-04-03T14:50:56.043Z,17.17
2019-04-03T14:53:26.292Z,16.43
2019-04-03T14:55:58.175Z,19.43
2019-04-03T14:58:29.244Z,18.37
2019-04-03T15:00:59.719Z,18.30
2019-04-03T15:03:33.611Z,17.80
2019-04-03T15:06:03.594Z,16.27
2019-04-03T15:08:33.779Z,15.17
2019-04-03T15:11:04.468Z,17.47
2019-04-03T15:13:34.914Z,15.50
2019-04-03T15:16:05.760Z,14.63
2019-04-03T15:18:36.179Z,14.10
2019-04-03T15:21:06.704Z,14.27
2019-04-03T15:23:40.770Z,16.63
2019-04-03T15:26:09.664Z,18.70
2019-04-03T15:28:39.881Z,18.17
2019-04-03T15:31:10.095Z,19.37
2019-04-03T15:33:40.315Z,18.97
2019-04-03T15:36:10.692Z,18.50
2019-04-03T15:38:40.970Z,17.80
2019-04-03T15:41:12.528Z,16.80
2019-04-03T15:43:45.590Z,14.87
2019-04-03T15:46:15.203Z,25.07
2019-04-03T15:48:45.564Z,15.30
2019-04-03T15:51:16.677Z,16.73
2019-04-03T15:53:47.428Z,16.07
2019-04-03T15:56:18.961Z,15.57
2019-04-03T15:58:50.946Z,15.33
2019-04-03T16:01:21.207Z,15.50
2019-04-03T16:03:51.514Z,15.53
2019-04-03T16:06:21.729Z,16.37
2019-04-03T16:08:53.525Z,16.40
2019-04-03T16:11:24.120Z,19.77
2019-04-03T16:13:55.878Z,20.43
2019-04-03T16:19:43.339Z,16.80
2019-04-03T16:22:46.294Z,17.83
2019-04-03T16:25:17.711Z,18.10
2019-04-03T16:27:49.009Z,21.43
2019-04-03T16:30:21.176Z,17.37
2019-04-03T16:32:51.942Z,22.60
2019-04-03T16:35:22.966Z,19.43
2019-04-03T16:37:56.651Z,20.37
2019-04-03T16:40:25.825Z,15.63
2019-04-03T16:42:56.595Z,20.43
2019-04-03T16:45:27.087Z,19.13
2019-04-03T16:47:57.946Z,16.30
2019-04-03T16:50:28.712Z,18.97
2019-04-03T16:52:59.076Z,16.23
2019-04-03T16:55:29.342Z,18.70
2019-04-03T16:57:59.722Z,22.90
2019-04-03T17:00:29.947Z,25.17
2019-04-03T17:03:01.239Z,19.07
2019-04-03T17:05:31.551Z,19.60
2019-04-03T17:08:02.020Z,19.13
2019-04-03T17:10:32.364Z,22.37
2019-04-03T17:13:02.651Z,22.37
2019-04-03T17:15:52.640Z,20.73
2019-04-03T17:18:24.950Z,23.90
2019-04-03T17:20:56.951Z,19.40
2019-04-03T17:23:27.253Z,26.63
2019-04-03T17:25:57.939Z,20.70
2019-04-03T17:28:28.253Z,21.43
2019-04-03T17:30:58.611Z,22.50
2019-04-03T17:33:28.894Z,20.90
2019-04-03T17:35:59.125Z,21.97
2019-04-03T17:38:32.605Z,28.70
2019-04-03T17:41:01.446Z,25.33
2019-04-03T17:43:31.718Z,25.17
2019-04-03T17:46:02.088Z,19.47
2019-04-03T17:48:32.383Z,20.60
2019-04-03T17:51:03.805Z,20.60
2019-04-03T17:53:34.847Z,25.27
2019-04-03T17:56:12.351Z,21.43
2019-04-03T17:58:41.185Z,28.13
2019-04-03T18:01:11.419Z,26.77
2019-04-03T18:04:14.381Z,31.17
2019-04-03T18:07:30.439Z,23.63
2019-04-03T18:10:18.841Z,21.90
2019-04-03T18:12:50.159Z,26.13
2019-04-03T18:15:51.968Z,24.43
2019-04-03T18:18:28.520Z,22.17
2019-04-03T18:20:58.792Z,22.63
2019-04-03T18:23:31.813Z,20.33
2019-04-03T18:26:02.180Z,24.43
2019-04-03T18:28:33.931Z,22.13
2019-04-03T18:31:05.076Z,22.27
2019-04-03T18:33:35.326Z,19.90
2019-04-03T18:36:06.860Z,22.13
2019-04-03T18:38:39.532Z,22.03
2019-04-03T18:41:09.834Z,18.77
2019-04-03T18:43:40.128Z,24.47
2019-04-03T18:46:10.416Z,19.63
2019-04-03T18:48:52.587Z,25.27
2019-04-03T18:51:12.578Z,25.90
2019-04-03T18:53:42.914Z,22.33
2019-04-03T18:56:13.784Z,27.03
2019-04-03T18:58:44.999Z,21.77
2019-04-03T19:01:17.166Z,30.43
2019-04-03T19:03:48.026Z,23.17
2019-04-03T19:06:19.228Z,24.43
2019-04-03T19:08:50.106Z,20.53
2019-04-03T19:11:20.778Z,25.53
2019-04-03T19:13:51.069Z,20.37
2019-04-03T19:16:29.554Z,20.80
2019-04-03T19:18:54.254Z,22.30
2019-04-03T19:21:28.442Z,24.37
2019-04-03T19:23:56.844Z,28.07
2019-04-03T19:26:27.668Z,25.53
2019-04-03T19:28:57.926Z,22.80
2019-04-03T19:31:28.214Z,27.87
2019-04-03T19:33:58.413Z,21.87
2019-04-03T19:36:29.983Z,26.43
2019-04-03T19:39:00.649Z,24.90
2019-04-03T19:41:32.447Z,19.93
2019-04-03T19:44:02.718Z,21.40
2019-04-03T19:46:32.982Z,29.53
2019-04-03T19:49:03.237Z,26.40
2019-04-03T19:51:37.191Z,22.97
2019-04-03T19:54:06.521Z,22.23
2019-04-03T19:56:36.933Z,26.07
2019-04-03T19:59:07.412Z,25.13
2019-04-03T20:01:38.948Z,26.97
2019-04-03T20:04:09.924Z,40.00
2019-04-03T20:06:40.190Z,28.77
2019-04-03T20:09:10.895Z,26.13
2019-04-03T20:11:41.283Z,18.63
2019-04-03T20:14:12.100Z,23.93
2019-04-03T20:16:42.454Z,23.73
2019-04-03T20:19:13.121Z,22.10
2019-04-03T20:21:43.451Z,28.57
2019-04-03T20:24:13.686Z,22.93
2019-04-03T20:26:46.381Z,20.23
2019-04-03T20:29:16.173Z,22.77
2019-04-03T20:31:46.712Z,24.20
2019-04-03T20:34:16.966Z,27.43
2019-04-03T20:36:47.204Z,22.37
2019-04-03T20:39:17.791Z,21.67
2019-04-03T20:41:48.179Z,31.73
2019-04-03T20:44:18.382Z,26.97
2019-04-03T20:46:48.579Z,29.50
2019-04-03T20:49:18.880Z,23.90
2019-04-03T20:51:49.127Z,28.27
2019-04-03T20:54:21.383Z,23.03
2019-04-03T20:56:57.672Z,23.43
2019-04-03T20:59:23.249Z,26.97
2019-04-03T21:01:53.447Z,24.70
2019-04-03T21:04:23.765Z,23.63
2019-04-03T21:06:54.043Z,25.10
2019-04-03T21:09:24.229Z,24.03
2019-04-03T21:11:54.416Z,28.77
2019-04-03T21:14:26.253Z,24.17
2019-04-03T21:16:56.537Z,29.80
2019-04-03T21:19:27.073Z,26.67
2019-04-03T21:21:57.724Z,24.77
2019-04-03T21:24:29.219Z,25.97
2019-04-03T21:26:59.479Z,20.57
2019-04-03T21:29:29.670Z,28.97
2019-04-03T21:32:00.110Z,21.67
2019-04-03T21:34:32.452Z,22.67
2019-04-03T21:37:02.334Z,23.90
2019-04-03T21:39:33.887Z,21.87
2019-04-03T21:42:04.440Z,25.20
2019-04-03T21:44:34.701Z,18.60
2019-04-03T21:47:04.967Z,23.77
2019-04-03T21:49:35.167Z,26.80
2019-04-03T21:52:05.638Z,22.37
2019-04-03T21:54:35.903Z,34.37
2019-04-03T21:57:06.788Z,26.03
2019-04-03T21:59:37.102Z,22.43
2019-04-03T22:02:07.292Z,28.03
2019-04-03T22:04:37.528Z,25.33
2019-04-03T22:07:07.798Z,30.20
2019-04-03T22:09:38.122Z,26.47
2019-04-03T22:12:08.587Z,26.93
2019-04-03T22:14:38.892Z,21.57
2019-04-03T22:17:11.411Z,24.10
2019-04-03T22:19:42.043Z,30.30
2019-04-03T22:22:12.391Z,28.73
2019-04-03T22:24:42.605Z,24.70
2019-04-03T22:27:12.849Z,27.47
2019-04-03T22:29:43.092Z,23.20
2019-04-03T22:32:13.361Z,26.57
2019-04-03T22:34:43.598Z,19.87
2019-04-03T22:37:13.791Z,23.83
2019-04-03T22:39:44.026Z,24.53
2019-04-03T22:42:15.060Z,22.23
2019-04-03T22:44:47.661Z,24.10
2019-04-03T22:47:17.717Z,25.63
2019-04-03T22:49:48.305Z,29.50
2019-04-03T22:52:18.589Z,24.77
2019-04-03T22:54:48.872Z,25.50
2019-04-03T22:57:19.817Z,29.73
2019-04-03T22:59:50.465Z,25.93
2019-04-03T23:02:20.719Z,27.23
2019-04-03T23:04:50.936Z,24.87
2019-04-03T23:07:21.465Z,26.40
2019-04-03T23:09:51.759Z,27.00
2019-04-03T23:12:22.085Z,28.87
2019-04-03T23:14:52.428Z,24.13
2019-04-03T23:17:22.729Z,21.23
2019-04-03T23:19:53.717Z,24.77
2019-04-03T23:22:25.919Z,19.57
2019-04-03T23:24:56.034Z,23.30
2019-04-03T23:27:26.422Z,22.43
2019-04-03T23:29:56.815Z,22.13
2019-04-03T23:32:28.206Z,27.83
2019-04-03T23:34:58.481Z,25.50
2019-04-03T23:37:28.815Z,20.20
2019-04-03T23:40:01.045Z,24.57
2019-04-03T23:42:31.260Z,23.33
2019-04-03T23:45:01.622Z,21.63
2019-04-03T23:47:32.014Z,22.97
2019-04-03T23:50:02.353Z,19.33
2019-04-03T23:52:32.646Z,19.67
2019-04-03T23:55:04.822Z,29.93
2019-04-03T23:57:35.173Z,24.43
